No1 Tokuyama — JK5318 — position and weather

sailwx.info

Track history (hours):
 
Tides and Currents Weather Stations Pressure Air Temp Water Temp Dewpoint Dewpoint Depression Visibility Wind Speed Wind Dir Waves Ship Positions

No1 Tokuyama

Last reported at 2017-May-29 03:24 UTC. Time now 2017-May-29 03:48 UTC.
Position N 34°42' E 135°17'.

Length 110 m; draft 7.2 m.

Type: Cargo ship. MMSI: 431400487.

Date/timePositionNaut miles runAvg speedWind from/ knotsBaromVisibWave heightAir tempDewpointWater temp
2017-May-29 03:24N 34°42' E 135°17'0 0.0
2017-May-29 02:54N 34°42' E 135°17'1 3.4
2017-May-29 02:30N 34°41' E 135°18'510.7
2017-May-29 02:00N 34°36' E 135°16'611.5
2017-May-29 01:30N 34°35' E 135°10'511.0
2017-May-29 01:00N 34°36' E 135°03'5 9.4
2017-May-29 00:28N 34°36' E 134°57'611.6
2017-May-28 23:56N 34°34' E 134°50'  
2017-May-26 06:29N 34°33' E 134°46'611.6
2017-May-26 06:00N 34°35' E 134°53'510.7
2017-May-26 05:30N 34°37' E 134°58'4 7.9
2017-May-26 05:01N 34°36' E 135°03'510.9
2017-May-26 04:30N 34°36' E 135°10'713.6
2017-May-26 04:01N 34°37' E 135°18'612.6
2017-May-26 03:30N 34°39' E 135°25'1 2.4
2017-May-26 02:57N 34°39' E 135°27'0 0.0
2017-May-26 02:27N 34°39' E 135°27'0 0.0
2017-May-26 01:57N 34°39' E 135°27'0 0.0
2017-May-26 01:27N 34°39' E 135°27'0 0.0
2017-May-26 00:57N 34°39' E 135°27'0 0.0
2017-May-26 00:27N 34°39' E 135°27'0 0.0
2017-May-25 23:57N 34°39' E 135°27'0 0.0
2017-May-25 23:27N 34°39' E 135°27'0 0.0
2017-May-25 22:57N 34°39' E 135°27'0 0.8
2017-May-25 22:30N 34°39' E 135°26'3 6.2
2017-May-25 22:00N 34°38' E 135°23'3 5.9
2017-May-25 21:30N 34°36' E 135°20'2 3.0
2017-May-25 20:50N 34°38' E 135°20'0 0.0
2017-May-25 20:26N 34°38' E 135°20'0 0.0
2017-May-25 19:56N 34°38' E 135°20'0 0.0
2017-May-25 19:26N 34°38' E 135°20'0 0.0
2017-May-25 18:50N 34°38' E 135°20'0 0.0
2017-May-25 18:08N 34°38' E 135°20'0 0.1
2017-May-25 17:56N 34°38' E 135°20'0 0.3
2017-May-25 17:31N 34°38' E 135°20'511.0
2017-May-25 17:01N 34°35' E 135°14'714.1
2017-May-25 16:30N 34°34' E 135°05'714.5
2017-May-25 16:00N 34°36' E 134°57'914.2
2017-May-25 15:24N 34°33' E 134°47'  
2017-May-20 05:55N 34°41' E 134°45'613.7
2017-May-20 05:30N 34°38' E 134°51'713.0
2017-May-20 04:59N 34°38' E 134°59'612.9
2017-May-20 04:30N 34°36' E 135°06'613.1
2017-May-20 04:01N 34°37' E 135°14'510.4
2017-May-20 03:31N 34°41' E 135°18'2 3.5
2017-May-20 03:00N 34°42' E 135°17'0 0.0
2017-May-20 02:26N 34°42' E 135°17'0 0.0
2017-May-20 01:56N 34°42' E 135°17'0 0.0
2017-May-20 01:14N 34°42' E 135°17'0 0.0
2017-May-20 00:56N 34°42' E 135°17'0 0.0
2017-May-20 00:26N 34°42' E 135°17'0 0.0
2017-May-19 23:56N 34°42' E 135°17'0 0.0
2017-May-19 23:26N 34°42' E 135°17'0 0.0
2017-May-19 23:01N 34°42' E 135°17'1 1.8
2017-May-19 22:31N 34°42' E 135°18'4 7.5
2017-May-19 22:01N 34°39' E 135°20'0 0.2
2017-May-19 21:19N 34°38' E 135°20'0 0.1
2017-May-19 20:37N 34°38' E 135°20'0 0.1
2017-May-19 20:25N 34°38' E 135°20'0 0.1
2017-May-19 19:55N 34°38' E 135°20'0 0.0
2017-May-19 19:25N 34°38' E 135°20'0 0.0
2017-May-19 18:55N 34°38' E 135°20'0 0.0
2017-May-19 18:25N 34°38' E 135°20'0 0.0
2017-May-19 17:55N 34°38' E 135°20'0 0.0
2017-May-19 17:25N 34°38' E 135°20'0 0.0
2017-May-19 16:52N 34°38' E 135°20'0 0.0
2017-May-19 16:28N 34°38' E 135°20'0 0.0
2017-May-19 15:58N 34°38' E 135°20'0 0.0
2017-May-19 15:28N 34°38' E 135°20'0 0.0
2017-May-19 14:46N 34°38' E 135°20'0 0.0
2017-May-19 13:58N 34°38' E 135°20'0 0.0
2017-May-19 13:22N 34°38' E 135°20'0 0.0
2017-May-19 12:46N 34°38' E 135°20'0 0.0
2017-May-19 12:28N 34°38' E 135°20'1 3.1
2017-May-19 12:00N 34°37' E 135°19'612.4
2017-May-19 11:30N 34°35' E 135°12'713.6
2017-May-19 11:00N 34°35' E 135°04'612.4
2017-May-19 10:30N 34°36' E 134°56'  
Track history (hours):
 
Tides and Currents Weather Stations Pressure Air Temp Water Temp Dewpoint Dewpoint Depression Visibility Wind Speed Wind Dir Waves Ship Positions

No1 Tokuyama

Last reported at 2017-May-29 03:24 UTC. Time now 2017-May-29 03:48 UTC.
Position N 34°42' E 135°17'.

Length 110 m; draft 7.2 m.

Type: Cargo ship. MMSI: 431400487.

Date/timePositionNaut miles runAvg speedWind from/ knotsBaromVisibWave heightAir tempDewpointWater temp
2017-May-29 03:24N 34°42' E 135°17'0 0.0
2017-May-29 02:54N 34°42' E 135°17'1 3.4
2017-May-29 02:30N 34°41' E 135°18'510.7
2017-May-29 02:00N 34°36' E 135°16'611.5
2017-May-29 01:30N 34°35' E 135°10'511.0
2017-May-29 01:00N 34°36' E 135°03'5 9.4
2017-May-29 00:28N 34°36' E 134°57'611.6
2017-May-28 23:56N 34°34' E 134°50'  
2017-May-26 06:29N 34°33' E 134°46'611.6
2017-May-26 06:00N 34°35' E 134°53'510.7
2017-May-26 05:30N 34°37' E 134°58'4 7.9
2017-May-26 05:01N 34°36' E 135°03'510.9
2017-May-26 04:30N 34°36' E 135°10'713.6
2017-May-26 04:01N 34°37' E 135°18'612.6
2017-May-26 03:30N 34°39' E 135°25'1 2.4
2017-May-26 02:57N 34°39' E 135°27'0 0.0
2017-May-26 02:27N 34°39' E 135°27'0 0.0
2017-May-26 01:57N 34°39' E 135°27'0 0.0
2017-May-26 01:27N 34°39' E 135°27'0 0.0
2017-May-26 00:57N 34°39' E 135°27'0 0.0
2017-May-26 00:27N 34°39' E 135°27'0 0.0
2017-May-25 23:57N 34°39' E 135°27'0 0.0
2017-May-25 23:27N 34°39' E 135°27'0 0.0
2017-May-25 22:57N 34°39' E 135°27'0 0.8
2017-May-25 22:30N 34°39' E 135°26'3 6.2
2017-May-25 22:00N 34°38' E 135°23'3 5.9
2017-May-25 21:30N 34°36' E 135°20'2 3.0
2017-May-25 20:50N 34°38' E 135°20'0 0.0
2017-May-25 20:26N 34°38' E 135°20'0 0.0
2017-May-25 19:56N 34°38' E 135°20'0 0.0
2017-May-25 19:26N 34°38' E 135°20'0 0.0
2017-May-25 18:50N 34°38' E 135°20'0 0.0
2017-May-25 18:08N 34°38' E 135°20'0 0.1
2017-May-25 17:56N 34°38' E 135°20'0 0.3
2017-May-25 17:31N 34°38' E 135°20'511.0
2017-May-25 17:01N 34°35' E 135°14'714.1
2017-May-25 16:30N 34°34' E 135°05'714.5
2017-May-25 16:00N 34°36' E 134°57'914.2
2017-May-25 15:24N 34°33' E 134°47'  
2017-May-20 05:55N 34°41' E 134°45'613.7
2017-May-20 05:30N 34°38' E 134°51'713.0
2017-May-20 04:59N 34°38' E 134°59'612.9
2017-May-20 04:30N 34°36' E 135°06'613.1
2017-May-20 04:01N 34°37' E 135°14'510.4
2017-May-20 03:31N 34°41' E 135°18'2 3.5
2017-May-20 03:00N 34°42' E 135°17'0 0.0
2017-May-20 02:26N 34°42' E 135°17'0 0.0
2017-May-20 01:56N 34°42' E 135°17'0 0.0
2017-May-20 01:14N 34°42' E 135°17'0 0.0
2017-May-20 00:56N 34°42' E 135°17'0 0.0
2017-May-20 00:26N 34°42' E 135°17'0 0.0
2017-May-19 23:56N 34°42' E 135°17'0 0.0
2017-May-19 23:26N 34°42' E 135°17'0 0.0
2017-May-19 23:01N 34°42' E 135°17'1 1.8
2017-May-19 22:31N 34°42' E 135°18'4 7.5
2017-May-19 22:01N 34°39' E 135°20'0 0.2
2017-May-19 21:19N 34°38' E 135°20'0 0.1
2017-May-19 20:37N 34°38' E 135°20'0 0.1
2017-May-19 20:25N 34°38' E 135°20'0 0.1
2017-May-19 19:55N 34°38' E 135°20'0 0.0
2017-May-19 19:25N 34°38' E 135°20'0 0.0
2017-May-19 18:55N 34°38' E 135°20'0 0.0
2017-May-19 18:25N 34°38' E 135°20'0 0.0
2017-May-19 17:55N 34°38' E 135°20'0 0.0
2017-May-19 17:25N 34°38' E 135°20'0 0.0
2017-May-19 16:52N 34°38' E 135°20'0 0.0
2017-May-19 16:28N 34°38' E 135°20'0 0.0
2017-May-19 15:58N 34°38' E 135°20'0 0.0
2017-May-19 15:28N 34°38' E 135°20'0 0.0
2017-May-19 14:46N 34°38' E 135°20'0 0.0
2017-May-19 13:58N 34°38' E 135°20'0 0.0
2017-May-19 13:22N 34°38' E 135°20'0 0.0
2017-May-19 12:46N 34°38' E 135°20'0 0.0
2017-May-19 12:28N 34°38' E 135°20'1 3.1
2017-May-19 12:00N 34°37' E 135°19'612.4
2017-May-19 11:30N 34°35' E 135°12'713.6
2017-May-19 11:00N 34°35' E 135°04'612.4
2017-May-19 10:30N 34°36' E 134°56'  

Dump ship's entire track history